createdAt,value
2022-09-07T00:01:08.473Z,14.85
2022-09-07T00:03:37.070Z,14.86
2022-09-07T00:06:10.875Z,15.26
2022-09-07T00:08:39.784Z,15.55
2022-09-07T00:11:11.490Z,15.49
2022-09-07T00:13:42.795Z,15.15
2022-09-07T00:16:15.608Z,15.25
2022-09-07T00:18:46.351Z,15.18
2022-09-07T00:21:16.789Z,15.25
2022-09-07T00:23:46.044Z,15.27
2022-09-07T00:26:17.303Z,15.37
2022-09-07T00:28:46.997Z,15.42
2022-09-07T00:31:17.984Z,15.44
2022-09-07T00:33:48.241Z,15.68
2022-09-07T00:36:16.456Z,15.57
2022-09-07T00:38:44.841Z,15.54
2022-09-07T00:41:13.473Z,15.41
2022-09-07T00:43:43.685Z,15.39
2022-09-07T00:46:16.247Z,15.39
2022-09-07T00:48:50.417Z,15.37
2022-09-07T00:51:25.549Z,15.34
2022-09-07T00:53:58.259Z,15.53
2022-09-07T00:56:30.689Z,15.38
2022-09-07T00:58:59.186Z,15.56
2022-09-07T01:01:28.796Z,15.30
2022-09-07T01:03:59.823Z,15.31
2022-09-07T01:06:31.851Z,15.23
2022-09-07T01:09:03.758Z,15.17
2022-09-07T01:11:33.809Z,15.23
2022-09-07T01:14:03.746Z,15.36
2022-09-07T01:16:50.033Z,15.49
2022-09-07T01:19:40.494Z,15.45
2022-09-07T01:22:30.678Z,15.44
2022-09-07T01:25:08.095Z,15.08
2022-09-07T01:28:07.083Z,14.88
2022-09-07T01:30:38.350Z,15.04
2022-09-07T01:33:22.390Z,14.66
2022-09-07T01:36:00.685Z,14.52
2022-09-07T01:38:36.614Z,14.42
2022-09-07T01:41:10.977Z,14.21
2022-09-07T01:43:48.040Z,14.21
2022-09-07T01:46:21.316Z,14.18
2022-09-07T01:48:52.874Z,14.32
2022-09-07T01:51:24.240Z,14.12
2022-09-07T01:53:56.409Z,14.15
2022-09-07T01:56:29.246Z,14.01
2022-09-07T01:59:03.052Z,14.14
2022-09-07T02:01:34.708Z,14.21
2022-09-07T02:04:08.826Z,14.16
2022-09-07T02:06:43.526Z,14.19
2022-09-07T02:09:15.878Z,14.27
2022-09-07T02:11:50.143Z,13.83
2022-09-07T02:14:25.615Z,13.72
2022-09-07T02:16:59.588Z,13.92
2022-09-07T02:19:31.238Z,14.13
2022-09-07T02:22:04.764Z,13.88
2022-09-07T02:24:37.746Z,13.55
2022-09-07T02:27:12.104Z,13.53
2022-09-07T02:29:43.300Z,13.56
2022-09-07T02:32:11.664Z,13.53
2022-09-07T02:34:40.255Z,13.35
2022-09-07T02:37:11.252Z,13.36
2022-09-07T02:39:39.603Z,13.30
2022-09-07T02:42:07.987Z,13.31
2022-09-07T02:44:39.796Z,13.41
2022-09-07T02:47:24.370Z,13.24
2022-09-07T02:50:13.222Z,13.08
2022-09-07T02:52:47.278Z,13.17
2022-09-07T02:55:27.040Z,13.11
2022-09-07T02:58:07.495Z,12.98
2022-09-07T03:00:43.905Z,13.34
2022-09-07T03:03:19.954Z,13.42
2022-09-07T03:05:53.286Z,12.96
2022-09-07T03:08:26.051Z,12.64
2022-09-07T03:10:56.239Z,12.55
2022-09-07T03:13:26.365Z,13.02
2022-09-07T03:15:56.424Z,13.00
2022-09-07T03:18:27.532Z,13.00
2022-09-07T03:20:56.200Z,12.83
2022-09-07T03:23:24.963Z,12.77
2022-09-07T03:25:53.312Z,12.81
2022-09-07T03:28:21.781Z,12.81
2022-09-07T03:30:50.289Z,12.84
2022-09-07T03:33:18.960Z,12.85
2022-09-07T03:36:02.594Z,12.67
2022-09-07T03:38:31.533Z,12.66
2022-09-07T03:41:01.220Z,12.91
2022-09-07T03:43:30.394Z,12.66
2022-09-07T03:45:59.311Z,12.52
2022-09-07T03:48:28.195Z,12.55
2022-09-07T03:50:59.200Z,12.53
2022-09-07T03:53:27.808Z,12.69
2022-09-07T03:56:00.500Z,12.78
2022-09-07T03:58:31.403Z,12.71
2022-09-07T04:01:01.424Z,12.88
2022-09-07T04:03:30.175Z,12.90
2022-09-07T04:06:00.990Z,12.76
2022-09-07T04:08:30.521Z,12.64
2022-09-07T04:10:59.719Z,12.77
2022-09-07T04:13:29.877Z,12.65
2022-09-07T04:15:58.654Z,12.44
2022-09-07T04:18:26.929Z,12.45
2022-09-07T04:21:00.696Z,12.54
2022-09-07T04:23:28.851Z,12.59
2022-09-07T04:25:56.995Z,12.44
2022-09-07T04:28:25.203Z,12.53
2022-09-07T04:30:53.478Z,12.56
2022-09-07T04:33:21.736Z,12.36
2022-09-07T04:35:49.914Z,12.38
2022-09-07T04:38:20.189Z,12.25
2022-09-07T04:40:48.391Z,12.20
2022-09-07T04:43:16.547Z,12.29
2022-09-07T04:45:44.752Z,12.29
2022-09-07T04:48:12.946Z,12.47
2022-09-07T04:50:41.374Z,12.43
2022-09-07T04:53:09.520Z,12.36
2022-09-07T04:55:38.998Z,12.36
2022-09-07T04:58:07.195Z,12.51
2022-09-07T05:00:36.551Z,12.63
2022-09-07T05:03:04.709Z,12.62
2022-09-07T05:05:32.953Z,12.79
2022-09-07T05:08:01.113Z,12.85
2022-09-07T05:10:29.290Z,13.09
2022-09-07T05:12:59.093Z,12.98
2022-09-07T05:15:29.706Z,12.92
2022-09-07T05:17:57.967Z,12.85
2022-09-07T05:20:26.499Z,13.02
2022-09-07T05:22:59.478Z,12.81
2022-09-07T05:25:29.036Z,12.80
2022-09-07T05:27:57.193Z,13.13
2022-09-07T05:33:15.327Z,13.13
2022-09-07T05:35:43.494Z,13.32
2022-09-07T05:38:11.647Z,13.34
2022-09-07T05:40:40.907Z,13.43
2022-09-07T05:43:10.365Z,13.56
2022-09-07T05:45:40.008Z,13.77
2022-09-07T05:48:08.824Z,13.79
2022-09-07T05:50:37.101Z,13.87
2022-09-07T05:53:05.284Z,14.12
2022-09-07T05:55:33.437Z,14.23
2022-09-07T05:58:01.590Z,14.42
2022-09-07T06:00:29.745Z,14.28
2022-09-07T06:02:59.377Z,14.16
2022-09-07T06:05:27.611Z,14.54
2022-09-07T06:07:55.803Z,14.66
2022-09-07T06:13:14.005Z,14.78
2022-09-07T06:15:42.222Z,14.88
2022-09-07T06:18:11.746Z,14.85
2022-09-07T06:20:39.910Z,15.20
2022-09-07T06:23:08.273Z,15.11
2022-09-07T06:25:36.428Z,15.15
2022-09-07T06:28:04.652Z,15.42
2022-09-07T06:30:32.809Z,15.48
2022-09-07T06:33:00.982Z,15.52
2022-09-07T06:35:30.453Z,15.52
2022-09-07T06:37:58.598Z,15.76
2022-09-07T06:40:26.767Z,15.74
2022-09-07T06:42:55.301Z,15.89
2022-09-07T06:45:23.636Z,15.92
2022-09-07T06:47:54.466Z,16.20
2022-09-07T06:50:22.628Z,16.44
2022-09-07T06:55:44.594Z,16.78
2022-09-07T06:58:12.749Z,16.55
2022-09-07T07:00:40.981Z,16.57
2022-09-07T07:03:09.731Z,16.62
2022-09-07T07:05:37.933Z,17.00
2022-09-07T07:08:07.446Z,17.15
2022-09-07T07:10:39.902Z,17.20
2022-09-07T07:13:08.117Z,17.31
2022-09-07T07:15:36.295Z,16.96
2022-09-07T07:18:19.968Z,17.39
2022-09-07T07:20:48.883Z,17.51
2022-09-07T07:23:18.391Z,17.51
2022-09-07T07:25:46.541Z,17.67
2022-09-07T07:31:09.800Z,17.88
2022-09-07T07:33:39.486Z,18.05
2022-09-07T07:36:09.776Z,17.99
2022-09-07T07:44:20.734Z,18.39
2022-09-07T07:46:49.894Z,18.20
2022-09-07T07:49:18.286Z,17.77
2022-09-07T07:54:37.047Z,18.16
2022-09-07T07:57:05.777Z,18.37
2022-09-07T07:59:33.951Z,18.08
2022-09-07T08:02:04.807Z,17.98
2022-09-07T08:04:33.650Z,18.08
2022-09-07T08:07:05.567Z,18.34
2022-09-07T08:09:39.720Z,18.40
2022-09-07T08:12:08.108Z,18.60
2022-09-07T08:14:40.621Z,18.49
2022-09-07T08:17:09.051Z,18.60
2022-09-07T08:19:37.245Z,19.03
2022-09-07T08:22:06.100Z,19.05
2022-09-07T08:24:34.821Z,19.20
2022-09-07T08:27:04.896Z,19.43
2022-09-07T08:29:35.212Z,19.81
2022-09-07T08:32:05.568Z,19.75
2022-09-07T08:34:35.922Z,19.71
2022-09-07T08:37:04.518Z,20.08
2022-09-07T08:39:32.716Z,20.19
2022-09-07T08:42:25.145Z,19.89
2022-09-07T08:45:00.915Z,20.08
2022-09-07T08:47:37.446Z,20.15
2022-09-07T08:50:11.434Z,20.38
2022-09-07T08:52:48.205Z,19.81
2022-09-07T08:55:22.012Z,20.17
2022-09-07T08:57:58.683Z,20.05
2022-09-07T09:00:26.909Z,20.55
2022-09-07T09:05:48.602Z,20.98
2022-09-07T09:08:30.454Z,21.11
2022-09-07T09:11:05.123Z,20.86
2022-09-07T09:13:47.645Z,21.10
2022-09-07T09:16:22.599Z,21.03
2022-09-07T09:19:00.749Z,21.48
2022-09-07T09:21:29.063Z,21.28
2022-09-07T09:24:03.088Z,21.54
2022-09-07T09:26:34.773Z,21.58
2022-09-07T09:29:15.240Z,21.67
2022-09-07T09:31:43.453Z,21.76
2022-09-07T09:34:13.533Z,21.76
2022-09-07T09:36:46.090Z,22.28
2022-09-07T09:39:29.500Z,21.78
2022-09-07T09:42:00.693Z,22.17
2022-09-07T09:44:34.941Z,22.10
2022-09-07T09:49:53.658Z,22.13
2022-09-07T09:52:29.722Z,22.38
2022-09-07T09:55:23.258Z,22.57
2022-09-07T10:04:01.451Z,22.89
2022-09-07T10:06:33.097Z,23.25
2022-09-07T10:09:02.950Z,23.19
2022-09-07T10:14:35.136Z,23.25
2022-09-07T10:17:12.896Z,23.51
2022-09-07T10:19:43.515Z,23.49
2022-09-07T10:22:25.709Z,23.51
2022-09-07T10:24:53.847Z,23.42
2022-09-07T10:27:31.163Z,23.14
2022-09-07T10:29:59.898Z,23.47
2022-09-07T10:32:50.489Z,23.75
2022-09-07T10:35:23.596Z,23.53
2022-09-07T10:38:00.300Z,23.94
2022-09-07T10:40:34.116Z,23.83
2022-09-07T10:43:38.687Z,24.31
2022-09-07T10:49:25.352Z,24.24
2022-09-07T10:52:01.932Z,24.31
2022-09-07T10:54:42.870Z,24.59
2022-09-07T10:57:39.092Z,24.86
2022-09-07T11:00:12.332Z,24.90
2022-09-07T11:05:50.179Z,24.28
2022-09-07T11:09:15.179Z,24.70
2022-09-07T11:14:20.091Z,25.03
2022-09-07T11:16:58.595Z,24.97
2022-09-07T11:19:38.329Z,25.29
2022-09-07T11:22:18.275Z,25.08
2022-09-07T11:27:43.051Z,25.46
2022-09-07T11:30:20.725Z,25.59
2022-09-07T11:32:56.422Z,25.36
2022-09-07T11:35:35.181Z,25.45
2022-09-07T11:38:14.813Z,25.07
2022-09-07T11:40:50.816Z,24.53
2022-09-07T11:43:23.488Z,24.33
2022-09-07T11:45:55.112Z,24.23
2022-09-07T11:48:30.937Z,24.34
2022-09-07T11:51:02.802Z,24.45
2022-09-07T11:53:35.465Z,24.40
2022-09-07T11:56:07.374Z,24.53
2022-09-07T11:58:50.223Z,24.80
2022-09-07T12:01:29.808Z,24.88
2022-09-07T12:04:19.494Z,24.91
2022-09-07T12:07:20.990Z,25.10
2022-09-07T12:10:15.162Z,25.26
2022-09-07T12:13:03.365Z,25.34
2022-09-07T12:15:46.266Z,25.28
2022-09-07T12:18:27.882Z,25.24
2022-09-07T12:20:56.171Z,25.15
2022-09-07T12:23:30.519Z,25.31
2022-09-07T12:26:50.605Z,25.35
2022-09-07T12:29:22.158Z,25.61
2022-09-07T12:32:08.287Z,25.58
2022-09-07T12:34:57.840Z,25.45
2022-09-07T12:37:46.993Z,25.62
2022-09-07T12:40:41.055Z,25.52
2022-09-07T12:43:45.842Z,25.69
2022-09-07T12:46:42.116Z,25.76
2022-09-07T12:49:26.542Z,26.04
2022-09-07T12:52:11.264Z,26.14
2022-09-07T12:55:04.468Z,25.52
2022-09-07T12:57:47.520Z,25.25
2022-09-07T13:00:23.250Z,25.03
2022-09-07T13:07:01.680Z,25.43
2022-09-07T13:09:33.366Z,25.45
2022-09-07T13:12:04.709Z,25.36
2022-09-07T13:14:37.842Z,25.05
2022-09-07T13:17:44.235Z,25.34
2022-09-07T13:20:39.170Z,25.47
2022-09-07T13:23:29.649Z,25.39
2022-09-07T13:26:00.528Z,25.34
2022-09-07T13:28:41.301Z,25.24
2022-09-07T13:31:32.191Z,25.13
2022-09-07T13:34:01.771Z,25.29
2022-09-07T13:36:39.760Z,25.04
2022-09-07T13:39:15.776Z,25.13
2022-09-07T13:41:52.149Z,25.13
2022-09-07T13:44:26.289Z,24.80
2022-09-07T13:47:07.888Z,24.59
2022-09-07T13:49:55.684Z,24.47
2022-09-07T13:52:37.202Z,24.45
2022-09-07T13:55:25.621Z,24.16
2022-09-07T13:58:04.181Z,24.12
2022-09-07T14:00:32.989Z,24.22
2022-09-07T14:03:06.333Z,24.17
2022-09-07T14:05:36.284Z,24.02
2022-09-07T14:08:04.456Z,24.15
2022-09-07T14:10:32.595Z,24.06
2022-09-07T14:13:08.914Z,24.01
2022-09-07T14:15:40.726Z,24.11
2022-09-07T14:18:13.686Z,24.13
2022-09-07T14:20:47.149Z,24.09
2022-09-07T14:23:23.292Z,24.35
2022-09-07T14:26:17.962Z,24.36
2022-09-07T14:28:47.935Z,24.50
2022-09-07T14:31:18.738Z,24.37
2022-09-07T14:33:51.565Z,24.56
2022-09-07T14:36:44.096Z,24.65
2022-09-07T14:39:15.623Z,24.69
2022-09-07T14:41:44.893Z,24.68
2022-09-07T14:44:30.104Z,24.58
2022-09-07T14:46:59.870Z,24.65
2022-09-07T14:49:28.890Z,24.95
2022-09-07T14:52:00.477Z,25.13
2022-09-07T14:54:31.199Z,25.32
2022-09-07T14:57:03.063Z,25.26
2022-09-07T14:59:40.555Z,25.30
2022-09-07T15:02:33.590Z,25.26
2022-09-07T15:05:19.371Z,25.13
2022-09-07T15:07:50.434Z,25.29
2022-09-07T15:10:29.484Z,24.94
2022-09-07T15:12:59.391Z,24.90
2022-09-07T15:15:30.973Z,24.88
2022-09-07T15:18:06.040Z,24.94
2022-09-07T15:20:39.720Z,24.69
2022-09-07T15:23:13.220Z,24.81
2022-09-07T15:25:45.421Z,24.82
2022-09-07T15:34:02.974Z,25.36
2022-09-07T15:36:32.251Z,25.64
2022-09-07T15:39:03.235Z,25.55
2022-09-07T15:41:31.968Z,25.44
2022-09-07T15:44:00.219Z,25.39
2022-09-07T15:46:28.412Z,25.46
2022-09-07T15:48:57.087Z,25.44
2022-09-07T15:54:17.098Z,25.69
2022-09-07T15:57:48.257Z,25.39
2022-09-07T15:59:33.715Z,25.15
2022-09-07T16:02:02.595Z,25.61
2022-09-07T16:04:31.147Z,25.58
2022-09-07T16:07:01.588Z,25.59
2022-09-07T16:09:31.330Z,25.67
2022-09-07T16:13:00.000Z,25.20
2022-09-07T16:14:47.610Z,25.26
2022-09-07T16:20:05.054Z,24.74
2022-09-07T16:25:24.222Z,24.39
2022-09-07T16:27:52.432Z,24.28
2022-09-07T16:30:22.193Z,24.30
2022-09-07T16:32:50.897Z,24.21
2022-09-07T16:35:19.430Z,23.94
2022-09-07T16:40:42.116Z,23.56
2022-09-07T16:43:10.591Z,23.38
2022-09-07T16:48:27.247Z,23.45
2022-09-07T16:51:01.615Z,23.30
2022-09-07T16:53:31.304Z,23.32
2022-09-07T16:56:05.830Z,23.16
2022-09-07T16:58:36.977Z,22.90
2022-09-07T17:01:06.599Z,22.85
2022-09-07T17:03:35.608Z,22.84
2022-09-07T17:06:05.565Z,22.76
2022-09-07T17:08:34.580Z,22.81
2022-09-07T17:11:07.227Z,22.65
2022-09-07T17:13:37.638Z,22.48
2022-09-07T17:16:07.729Z,22.31
2022-09-07T17:21:25.025Z,22.17
2022-09-07T17:23:55.833Z,22.13
2022-09-07T17:26:27.511Z,22.07
2022-09-07T17:29:00.405Z,22.07
2022-09-07T17:34:19.475Z,21.97
2022-09-07T17:36:48.080Z,21.98
2022-09-07T17:39:18.147Z,21.69
2022-09-07T17:41:52.748Z,21.54
2022-09-07T17:44:21.200Z,21.40
2022-09-07T17:46:49.400Z,21.32
2022-09-07T17:49:17.867Z,21.28
2022-09-07T17:51:46.527Z,21.39
2022-09-07T17:54:17.622Z,21.26
2022-09-07T17:56:47.713Z,21.21
2022-09-07T18:02:04.508Z,21.57
2022-09-07T18:04:35.722Z,21.59
2022-09-07T18:07:04.576Z,21.55
2022-09-07T18:09:32.735Z,21.79
2022-09-07T18:12:02.659Z,21.77
2022-09-07T18:14:31.036Z,21.58
2022-09-07T18:16:59.185Z,21.48
2022-09-07T18:19:27.420Z,21.50
2022-09-07T18:21:55.616Z,21.74
2022-09-07T18:24:25.148Z,21.49
2022-09-07T18:26:54.422Z,21.63
2022-09-07T18:29:32.213Z,21.52
2022-09-07T18:32:03.099Z,21.33
2022-09-07T18:34:32.118Z,21.28
2022-09-07T18:37:00.868Z,21.23
2022-09-07T18:39:29.512Z,21.14
2022-09-07T18:41:58.087Z,21.00
2022-09-07T18:47:22.231Z,20.72
2022-09-07T18:49:55.613Z,20.50
2022-09-07T18:55:11.998Z,20.06
2022-09-07T18:57:40.159Z,20.12
2022-09-07T19:00:12.743Z,20.22
2022-09-07T19:02:40.976Z,20.07
2022-09-07T19:07:59.565Z,20.12
2022-09-07T19:10:28.004Z,20.01
2022-09-07T19:12:56.714Z,20.15
2022-09-07T19:15:26.391Z,20.24
2022-09-07T19:17:54.599Z,20.25
2022-09-07T19:20:22.968Z,20.20
2022-09-07T19:22:51.102Z,20.26
2022-09-07T19:25:19.923Z,20.24
2022-09-07T19:27:48.042Z,20.27
2022-09-07T19:30:17.423Z,20.05
2022-09-07T19:32:46.942Z,20.05
2022-09-07T19:35:15.131Z,20.10
2022-09-07T19:37:43.295Z,19.97
2022-09-07T19:40:17.175Z,20.12
2022-09-07T19:42:47.591Z,20.07
2022-09-07T19:45:16.047Z,20.18
2022-09-07T19:47:44.288Z,20.08
2022-09-07T19:50:13.898Z,20.18
2022-09-07T19:52:42.570Z,20.11
2022-09-07T19:55:10.877Z,20.05
2022-09-07T19:57:39.059Z,20.21
2022-09-07T20:00:08.554Z,20.16
2022-09-07T20:02:40.128Z,20.03
2022-09-07T20:05:08.992Z,19.89
2022-09-07T20:07:38.451Z,19.81
2022-09-07T20:10:07.852Z,19.76
2022-09-07T20:12:36.106Z,20.10
2022-09-07T20:15:04.569Z,19.79
2022-09-07T20:17:35.505Z,19.99
2022-09-07T20:20:04.562Z,19.93
2022-09-07T20:22:32.858Z,19.70
2022-09-07T20:25:02.334Z,19.87
2022-09-07T20:27:30.654Z,19.79
2022-09-07T20:29:58.776Z,19.68
2022-09-07T20:32:28.240Z,19.43
2022-09-07T20:34:57.223Z,19.39
2022-09-07T20:37:26.723Z,19.34
2022-09-07T20:39:55.032Z,19.31
2022-09-07T20:42:24.557Z,19.31
2022-09-07T20:44:53.477Z,19.38
2022-09-07T20:47:21.667Z,19.33
2022-09-07T20:49:51.567Z,19.25
2022-09-07T20:52:19.700Z,19.02
2022-09-07T20:54:47.827Z,19.14
2022-09-07T20:57:15.939Z,19.05
2022-09-07T20:59:45.474Z,18.90
2022-09-07T21:02:13.660Z,19.00
2022-09-07T21:04:43.554Z,18.92
2022-09-07T21:07:11.784Z,18.80
2022-09-07T21:09:40.218Z,18.75
2022-09-07T21:12:08.700Z,18.77
2022-09-07T21:14:36.915Z,18.65
2022-09-07T21:17:06.716Z,18.58
2022-09-07T21:19:36.850Z,18.42
2022-09-07T21:22:05.008Z,18.38
2022-09-07T21:24:33.158Z,18.52
2022-09-07T21:27:01.270Z,18.56
2022-09-07T21:29:29.534Z,18.33
2022-09-07T21:31:57.748Z,18.17
2022-09-07T21:34:27.327Z,18.15
2022-09-07T21:36:55.437Z,18.13
2022-09-07T21:39:23.850Z,18.05
2022-09-07T21:41:52.003Z,17.95
2022-09-07T21:44:20.453Z,17.91
2022-09-07T21:46:48.678Z,17.90
2022-09-07T21:49:17.165Z,17.86
2022-09-07T21:51:46.635Z,17.88
2022-09-07T21:54:14.815Z,17.86
2022-09-07T21:56:46.480Z,18.00
2022-09-07T21:59:15.356Z,17.96
2022-09-07T22:01:43.611Z,17.85
2022-09-07T22:04:12.127Z,17.88
2022-09-07T22:06:41.435Z,17.82
2022-09-07T22:09:10.932Z,17.97
2022-09-07T22:11:41.156Z,17.82
2022-09-07T22:14:13.521Z,17.85
2022-09-07T22:16:41.761Z,17.87
2022-09-07T22:19:10.001Z,17.79
2022-09-07T22:21:38.416Z,17.73
2022-09-07T22:24:07.343Z,17.60
2022-09-07T22:26:38.351Z,17.72
2022-09-07T22:29:08.161Z,17.51
2022-09-07T22:31:37.674Z,17.59
2022-09-07T22:34:08.103Z,17.55
2022-09-07T22:36:37.691Z,17.69
2022-09-07T22:39:11.079Z,17.54
2022-09-07T22:41:41.676Z,17.43
2022-09-07T22:44:12.419Z,17.52
2022-09-07T22:46:42.910Z,17.50
2022-09-07T22:49:12.599Z,17.47
2022-09-07T22:51:40.851Z,17.58
2022-09-07T22:54:09.070Z,17.43
2022-09-07T22:56:37.544Z,17.45
2022-09-07T22:59:08.998Z,17.47
2022-09-07T23:01:37.808Z,17.47
2022-09-07T23:04:06.969Z,17.29
2022-09-07T23:06:36.614Z,17.50
2022-09-07T23:09:08.114Z,17.42
2022-09-07T23:11:36.735Z,17.31
2022-09-07T23:14:08.871Z,17.31
2022-09-07T23:16:37.460Z,17.22
2022-09-07T23:19:06.045Z,17.15
2022-09-07T23:21:34.215Z,17.09
2022-09-07T23:24:03.076Z,17.42
2022-09-07T23:26:32.638Z,17.18
2022-09-07T23:29:03.491Z,17.11
2022-09-07T23:31:36.883Z,17.11
2022-09-07T23:34:05.555Z,17.17
2022-09-07T23:36:34.350Z,17.12
2022-09-07T23:39:02.731Z,17.11
2022-09-07T23:41:30.845Z,16.94
2022-09-07T23:44:00.475Z,17.02
2022-09-07T23:46:28.708Z,17.00
2022-09-07T23:48:58.198Z,16.85
2022-09-07T23:51:26.531Z,16.67
2022-09-07T23:53:54.748Z,16.64
2022-09-07T23:56:24.444Z,16.58
2022-09-07T23:58:52.840Z,16.58
